Time;durP1;ratioP1;P1;durP2;ratioP2;P2;SDS_P1;SDS_P2;PMS_P1;PMS_P2;Temp;Humidity;BMP_temperature;BMP_pressure;BME280_temperature;BME280_humidity;BME280_pressure;Samples;Min_cycle;Max_cycle;Signal;HPM_P1;HPM_P2
2022/07/28 00:00:41;;;;;;;3.80;1.27;;;;;;;;;;5146114;27;20212;-70
2022/07/28 00:03:09;;;;;;;4.55;1.30;;;;;;;;;;5145914;27;20546;-70
2022/07/28 00:05:35;;;;;;;5.28;1.65;;;;;;;;;;5145904;27;20213;-70
2022/07/28 00:08:01;;;;;;;2.65;1.67;;;;;;;;;;5146056;27;20194;-70
2022/07/28 00:10:28;;;;;;;3.25;1.55;;;;;;;;;;5145968;27;20567;-70
2022/07/28 00:12:54;;;;;;;3.08;1.40;;;;;;;;;;5145934;27;20362;-70
2022/07/28 00:15:20;;;;;;;1.40;1.17;;;;;;;;;;5145718;27;20201;-70
2022/07/28 00:17:47;;;;;;;2.95;1.63;;;;;;;;;;5145599;27;20198;-70
2022/07/28 00:20:14;;;;;;;1.55;1.30;;;;;;;;;;5145616;27;20227;-70
2022/07/28 00:22:41;;;;;;;4.95;1.65;;;;;;;;;;5145744;27;20194;-70
2022/07/28 00:25:08;;;;;;;1.90;1.48;;;;;;;;;;5145580;27;20206;-70
2022/07/28 00:27:34;;;;;;;3.75;1.10;;;;;;;;;;5145430;27;20420;-70
2022/07/28 00:30:01;;;;;;;2.35;1.20;;;;;;;;;;5145988;27;20394;-70
2022/07/28 00:32:27;;;;;;;1.95;1.35;;;;;;;;;;5145677;27;20198;-70
2022/07/28 00:34:53;;;;;;;1.67;1.30;;;;;;;;;;5145306;27;20202;-70
2022/07/28 00:37:21;;;;;;;2.00;1.30;;;;;;;;;;5145394;27;20198;-70
2022/07/28 00:39:47;;;;;;;1.10;1.02;;;;;;;;;;5145633;27;20194;-70
2022/07/28 00:42:16;;;;;;;1.52;1.42;;;;;;;;;;5145385;27;20201;-70
2022/07/28 00:44:43;;;;;;;2.17;1.33;;;;;;;;;;5145267;27;20201;-70
2022/07/28 00:47:10;;;;;;;1.77;1.02;;;;;;;;;;5144918;27;20194;-70
2022/07/28 00:49:36;;;;;;;2.80;1.58;;;;;;;;;;5145338;27;20387;-70
2022/07/28 00:52:03;;;;;;;4.90;1.48;;;;;;;;;;5145069;27;20201;-70
2022/07/28 00:54:31;;;;;;;2.20;1.42;;;;;;;;;;5144945;27;20202;-70
2022/07/28 00:56:58;;;;;;;1.40;1.30;;;;;;;;;;5144949;27;20235;-70
2022/07/28 00:59:25;;;;;;;4.55;1.65;;;;;;;;;;5144714;27;20194;-70
2022/07/28 01:01:51;;;;;;;4.57;1.50;;;;;;;;;;5144904;27;20501;-70
2022/07/28 01:04:18;;;;;;;1.70;1.55;;;;;;;;;;5145200;27;20198;-70
2022/07/28 01:06:51;;;;;;;3.67;1.40;;;;;;;;;;5144967;27;20221;-70
2022/07/28 01:09:25;;;;;;;1.67;1.17;;;;;;;;;;5144738;27;20198;-69
2022/07/28 01:11:57;;;;;;;1.48;1.30;;;;;;;;;;5144033;27;20533;-69
2022/07/28 01:14:29;;;;;;;1.70;1.60;;;;;;;;;;5144976;27;20501;-69
2022/07/28 01:16:57;;;;;;;2.05;1.50;;;;;;;;;;5144561;27;20408;-69
2022/07/28 01:19:33;;;;;;;1.30;1.13;;;;;;;;;;5145099;27;20194;-69
2022/07/28 01:22:00;;;;;;;3.97;1.50;;;;;;;;;;5145091;27;20238;-69
2022/07/28 01:24:27;;;;;;;2.35;1.45;;;;;;;;;;5144360;27;20270;-69
2022/07/28 01:26:56;;;;;;;1.30;1.27;;;;;;;;;;5144246;27;20194;-69
2022/07/28 01:29:41;;;;;;;1.85;1.20;;;;;;;;;;5144406;27;20395;-70
2022/07/28 01:32:13;;;;;;;3.35;1.60;;;;;;;;;;5144483;27;20202;-70
2022/07/28 01:34:41;;;;;;;1.92;1.48;;;;;;;;;;5144110;27;20239;-70
2022/07/28 01:37:11;;;;;;;4.35;1.50;;;;;;;;;;5144147;27;20201;-70
2022/07/28 01:39:39;;;;;;;2.58;1.48;;;;;;;;;;5144160;27;20239;-70
2022/07/28 01:42:06;;;;;;;1.60;1.50;;;;;;;;;;5144281;27;20231;-70
2022/07/28 01:44:34;;;;;;;2.95;1.98;;;;;;;;;;5144124;27;20194;-70
2022/07/28 01:47:03;;;;;;;1.55;1.45;;;;;;;;;;5143922;27;20217;-70
2022/07/28 01:49:31;;;;;;;3.30;1.50;;;;;;;;;;5143994;27;20233;-70
2022/07/28 01:51:58;;;;;;;1.85;1.42;;;;;;;;;;5144232;27;20646;-70
2022/07/28 01:54:27;;;;;;;4.32;1.25;;;;;;;;;;5143917;27;20202;-70
2022/07/28 01:56:55;;;;;;;1.95;1.50;;;;;;;;;;5143635;27;20195;-70
2022/07/28 01:59:23;;;;;;;2.80;1.33;;;;;;;;;;5143936;27;20395;-70
2022/07/28 02:01:50;;;;;;;2.40;1.10;;;;;;;;;;5143810;27;20190;-70
2022/07/28 02:04:17;;;;;;;1.58;1.42;;;;;;;;;;5144100;27;20494;-70
2022/07/28 02:06:46;;;;;;;1.55;1.45;;;;;;;;;;5143522;27;20541;-70
2022/07/28 02:09:13;;;;;;;3.08;1.75;;;;;;;;;;5143750;27;20494;-70
2022/07/28 02:11:40;;;;;;;1.83;1.55;;;;;;;;;;5142685;27;20255;-70
2022/07/28 02:14:07;;;;;;;3.22;1.75;;;;;;;;;;5143721;27;20419;-70
2022/07/28 02:16:33;;;;;;;6.03;1.58;;;;;;;;;;5143526;27;20221;-70
2022/07/28 02:19:00;;;;;;;1.25;1.15;;;;;;;;;;5143734;27;20419;-70
2022/07/28 02:21:29;;;;;;;2.58;1.52;;;;;;;;;;5143691;27;20194;-70
2022/07/28 02:23:58;;;;;;;2.88;1.73;;;;;;;;;;5143548;27;20265;-70
2022/07/28 02:26:27;;;;;;;4.53;1.60;;;;;;;;;;5143296;27;20494;-70
2022/07/28 02:28:54;;;;;;;1.58;1.48;;;;;;;;;;5143514;27;20199;-69
2022/07/28 02:31:24;;;;;;;4.82;1.40;;;;;;;;;;5143605;28;20264;-69
2022/07/28 02:33:51;;;;;;;2.65;1.40;;;;;;;;;;5143526;28;20547;-69
2022/07/28 02:36:25;;;;;;;3.17;1.15;;;;;;;;;;5143467;28;20232;-70
2022/07/28 02:38:54;;;;;;;2.15;1.80;;;;;;;;;;5143476;28;20497;-70
2022/07/28 02:41:24;;;;;;;2.45;1.42;;;;;;;;;;5143350;28;20197;-70
2022/07/28 02:43:52;;;;;;;2.33;1.60;;;;;;;;;;5143624;28;20222;-69
2022/07/28 02:46:19;;;;;;;1.60;1.60;;;;;;;;;;5143069;28;20195;-69
2022/07/28 02:48:47;;;;;;;1.80;1.42;;;;;;;;;;5143686;28;20216;-69
2022/07/28 02:51:14;;;;;;;2.90;1.70;;;;;;;;;;5143404;28;20233;-69
2022/07/28 02:53:41;;;;;;;4.18;1.52;;;;;;;;;;5143119;28;20208;-69
2022/07/28 02:56:08;;;;;;;5.43;1.67;;;;;;;;;;5142928;28;20198;-69
2022/07/28 02:58:36;;;;;;;1.48;1.38;;;;;;;;;;5143282;27;20388;-69
2022/07/28 03:01:03;;;;;;;1.65;1.40;;;;;;;;;;5143767;28;20216;-69
2022/07/28 03:03:30;;;;;;;2.47;1.40;;;;;;;;;;5143265;28;20239;-69
2022/07/28 03:05:56;;;;;;;1.65;1.55;;;;;;;;;;5143086;28;20222;-69
2022/07/28 03:08:22;;;;;;;2.75;1.50;;;;;;;;;;5143011;28;20198;-69
2022/07/28 03:10:49;;;;;;;1.90;1.52;;;;;;;;;;5143341;27;20218;-69
2022/07/28 03:13:15;;;;;;;3.88;1.77;;;;;;;;;;5143283;28;20387;-70
2022/07/28 03:15:42;;;;;;;3.63;1.98;;;;;;;;;;5143377;28;20202;-70
2022/07/28 03:18:09;;;;;;;1.30;1.30;;;;;;;;;;5142830;28;20210;-70
2022/07/28 03:20:35;;;;;;;4.32;1.67;;;;;;;;;;5143112;27;20236;-70
2022/07/28 03:23:02;;;;;;;2.40;1.95;;;;;;;;;;5145800;27;20222;-70
2022/07/28 03:25:32;;;;;;;1.58;1.58;;;;;;;;;;5147140;27;20194;-70
2022/07/28 03:27:59;;;;;;;1.65;1.50;;;;;;;;;;5146701;27;20194;-70
2022/07/28 03:30:27;;;;;;;6.85;1.80;;;;;;;;;;5146856;27;20217;-70
2022/07/28 03:32:56;;;;;;;6.68;1.92;;;;;;;;;;5146764;27;20194;-70
2022/07/28 03:35:23;;;;;;;2.08;1.90;;;;;;;;;;5146499;27;20228;-69
2022/07/28 03:37:52;;;;;;;1.85;1.65;;;;;;;;;;5146571;27;20194;-69
2022/07/28 03:40:19;;;;;;;2.47;1.85;;;;;;;;;;5146775;27;20247;-69
2022/07/28 03:42:46;;;;;;;2.53;1.63;;;;;;;;;;5146859;27;20240;-69
2022/07/28 03:45:13;;;;;;;1.63;1.52;;;;;;;;;;5146491;27;20255;-69
2022/07/28 03:47:48;;;;;;;2.30;1.80;;;;;;;;;;5146233;27;20194;-69
2022/07/28 03:50:15;;;;;;;2.13;2.00;;;;;;;;;;5146282;27;20208;-69
2022/07/28 03:52:42;;;;;;;8.00;1.90;;;;;;;;;;5146356;27;20194;-69
2022/07/28 03:55:08;;;;;;;4.13;1.60;;;;;;;;;;5146294;27;20198;-69
2022/07/28 03:57:34;;;;;;;2.22;2.00;;;;;;;;;;5146137;27;20239;-70
2022/07/28 04:00:01;;;;;;;3.53;1.92;;;;;;;;;;5146191;27;20194;-70
2022/07/28 04:02:27;;;;;;;6.97;2.03;;;;;;;;;;5146076;27;20190;-70
2022/07/28 04:04:53;;;;;;;3.90;1.75;;;;;;;;;;5146303;27;20549;-70
2022/07/28 04:07:21;;;;;;;3.30;2.05;;;;;;;;;;5145757;27;20246;-70
2022/07/28 04:09:47;;;;;;;4.22;2.13;;;;;;;;;;5146018;27;20216;-70
2022/07/28 04:12:13;;;;;;;3.65;1.95;;;;;;;;;;5146308;27;20215;-69
2022/07/28 04:14:40;;;;;;;3.47;2.10;;;;;;;;;;5145901;27;20198;-69
2022/07/28 04:17:06;;;;;;;3.85;2.00;;;;;;;;;;5145460;27;20205;-68
2022/07/28 04:19:32;;;;;;;2.55;2.03;;;;;;;;;;5146018;27;20239;-68
2022/07/28 04:21:59;;;;;;;11.23;2.22;;;;;;;;;;5145953;27;20375;-68
2022/07/28 04:24:26;;;;;;;3.33;1.80;;;;;;;;;;5145763;27;20427;-68
2022/07/28 04:26:53;;;;;;;2.10;1.90;;;;;;;;;;5145464;27;20419;-68
2022/07/28 04:29:19;;;;;;;4.53;2.30;;;;;;;;;;5145768;27;20261;-68
2022/07/28 04:31:45;;;;;;;2.35;2.15;;;;;;;;;;5145390;27;20222;-68
2022/07/28 04:34:13;;;;;;;6.80;2.25;;;;;;;;;;5144710;27;20267;-68
2022/07/28 04:36:42;;;;;;;2.70;1.98;;;;;;;;;;5145424;27;20285;-68
2022/07/28 04:39:09;;;;;;;4.75;2.10;;;;;;;;;;5145484;27;20194;-68
2022/07/28 04:41:38;;;;;;;4.43;1.70;;;;;;;;;;5145441;27;20190;-68
2022/07/28 04:44:04;;;;;;;5.30;1.65;;;;;;;;;;5145329;27;20194;-68
2022/07/28 04:46:31;;;;;;;3.05;2.17;;;;;;;;;;5145106;27;20190;-68
2022/07/28 04:48:57;;;;;;;4.90;2.17;;;;;;;;;;5145378;27;20209;-68
2022/07/28 04:51:23;;;;;;;2.47;2.30;;;;;;;;;;5145294;27;20218;-68
2022/07/28 04:53:50;;;;;;;4.07;1.90;;;;;;;;;;5145012;27;20202;-68
2022/07/28 04:56:16;;;;;;;4.35;2.45;;;;;;;;;;5144999;27;20467;-68
2022/07/28 04:58:43;;;;;;;2.35;2.17;;;;;;;;;;5144911;27;20195;-68
2022/07/28 05:01:10;;;;;;;4.95;2.42;;;;;;;;;;5145105;27;20359;-68
2022/07/28 05:03:37;;;;;;;2.30;2.10;;;;;;;;;;5144779;27;20195;-68
2022/07/28 05:06:03;;;;;;;2.10;1.98;;;;;;;;;;5144902;27;20296;-69
2022/07/28 05:08:30;;;;;;;4.97;1.77;;;;;;;;;;5144785;27;20201;-68
2022/07/28 05:10:56;;;;;;;1.90;1.77;;;;;;;;;;5144711;27;20214;-68
2022/07/28 05:13:22;;;;;;;2.75;2.03;;;;;;;;;;5144635;27;20323;-68
2022/07/28 05:15:50;;;;;;;5.05;2.00;;;;;;;;;;5144858;27;20194;-68
2022/07/28 05:18:16;;;;;;;4.15;2.10;;;;;;;;;;5144451;27;20195;-68
2022/07/28 05:20:42;;;;;;;4.13;2.03;;;;;;;;;;5144503;27;20198;-68
2022/07/28 05:23:10;;;;;;;6.22;1.95;;;;;;;;;;5144552;27;20385;-68
2022/07/28 05:25:36;;;;;;;2.05;1.80;;;;;;;;;;5144549;27;20190;-68
2022/07/28 05:28:03;;;;;;;2.05;1.75;;;;;;;;;;5144083;27;20198;-68
2022/07/28 05:30:29;;;;;;;3.17;2.00;;;;;;;;;;5144529;27;20194;-68
2022/07/28 05:32:58;;;;;;;1.88;1.77;;;;;;;;;;5144450;27;20218;-68
2022/07/28 05:35:25;;;;;;;10.18;2.10;;;;;;;;;;5144693;27;20330;-68
2022/07/28 05:37:51;;;;;;;2.85;2.15;;;;;;;;;;5144052;27;20506;-68
2022/07/28 05:40:18;;;;;;;2.15;2.03;;;;;;;;;;5144124;27;20198;-68
2022/07/28 05:42:46;;;;;;;2.38;2.10;;;;;;;;;;5144429;27;20229;-68
2022/07/28 05:45:12;;;;;;;3.30;2.15;;;;;;;;;;5144166;27;20424;-68
2022/07/28 05:47:44;;;;;;;4.45;2.35;;;;;;;;;;5143990;27;20383;-68
2022/07/28 05:50:12;;;;;;;4.82;3.50;;;;;;;;;;5143833;27;20197;-68
2022/07/28 05:52:38;;;;;;;3.92;2.28;;;;;;;;;;5144054;27;20218;-68
2022/07/28 05:55:06;;;;;;;5.25;2.92;;;;;;;;;;5143899;27;20240;-68
2022/07/28 05:57:32;;;;;;;6.07;2.72;;;;;;;;;;5143774;27;20202;-68
2022/07/28 05:59:58;;;;;;;8.00;5.25;;;;;;;;;;5143981;27;20393;-68
2022/07/28 06:02:24;;;;;;;6.80;2.67;;;;;;;;;;5143945;27;20423;-68
2022/07/28 06:04:51;;;;;;;2.70;2.50;;;;;;;;;;5143717;27;20206;-68
2022/07/28 06:07:18;;;;;;;3.05;2.60;;;;;;;;;;5143524;27;20248;-67
2022/07/28 06:09:44;;;;;;;3.70;2.25;;;;;;;;;;5043785;27;20390;-69
2022/07/28 06:12:11;;;;;;;2.83;2.35;;;;;;;;;;5035718;27;20232;-69
2022/07/28 06:14:37;;;;;;;5.00;3.05;;;;;;;;;;5033439;28;20612;-70
2022/07/28 06:17:03;;;;;;;5.47;2.85;;;;;;;;;;5030469;28;20432;-68
2022/07/28 06:19:30;;;;;;;6.45;2.92;;;;;;;;;;5034582;28;20213;-68
2022/07/28 06:21:56;;;;;;;5.18;2.78;;;;;;;;;;5030650;28;20210;-68
2022/07/28 06:24:23;;;;;;;2.65;2.45;;;;;;;;;;5031410;28;20221;-69
2022/07/28 06:26:51;;;;;;;8.43;3.20;;;;;;;;;;5029555;28;21120;-69
2022/07/28 06:29:17;;;;;;;3.38;3.10;;;;;;;;;;5030366;28;20309;-69
2022/07/28 06:31:44;;;;;;;4.18;3.20;;;;;;;;;;5031427;28;20270;-70
2022/07/28 06:34:10;;;;;;;3.80;3.17;;;;;;;;;;5031752;28;20209;-70
2022/07/28 06:36:36;;;;;;;3.95;3.60;;;;;;;;;;5031298;28;20334;-69
2022/07/28 06:39:03;;;;;;;5.43;3.08;;;;;;;;;;5031583;28;20214;-69
2022/07/28 06:41:31;;;;;;;4.05;3.30;;;;;;;;;;5050248;28;20426;-69
2022/07/28 06:43:57;;;;;;;4.50;3.38;;;;;;;;;;5032013;28;20221;-69
2022/07/28 06:46:23;;;;;;;4.45;3.60;;;;;;;;;;5031372;28;20257;-69
2022/07/28 06:48:50;;;;;;;5.13;4.32;;;;;;;;;;5031458;28;20213;-69
2022/07/28 06:51:18;;;;;;;3.75;3.40;;;;;;;;;;5031205;28;20218;-69
2022/07/28 06:53:46;;;;;;;5.85;4.70;;;;;;;;;;5031674;28;20627;-69
2022/07/28 06:56:12;;;;;;;6.50;4.03;;;;;;;;;;5031547;28;20229;-70
2022/07/28 06:58:40;;;;;;;4.28;3.88;;;;;;;;;;5035052;28;20244;-69
2022/07/28 07:01:07;;;;;;;4.53;3.83;;;;;;;;;;5035046;28;20336;-69
2022/07/28 07:03:33;;;;;;;6.00;4.10;;;;;;;;;;5035408;28;20284;-69
2022/07/28 07:06:00;;;;;;;5.75;4.20;;;;;;;;;;5032868;28;20229;-69
2022/07/28 07:08:26;;;;;;;4.22;3.75;;;;;;;;;;5035112;28;20263;-69
2022/07/28 07:10:52;;;;;;;4.43;4.10;;;;;;;;;;5033819;28;20402;-69
2022/07/28 07:13:18;;;;;;;6.45;4.63;;;;;;;;;;5034066;28;20454;-69
2022/07/28 07:15:46;;;;;;;5.70;4.18;;;;;;;;;;5033864;28;20217;-69
2022/07/28 07:18:12;;;;;;;5.05;4.65;;;;;;;;;;5034229;28;20205;-69
2022/07/28 07:20:38;;;;;;;8.68;4.28;;;;;;;;;;5034985;28;20209;-69
2022/07/28 07:23:05;;;;;;;8.23;4.22;;;;;;;;;;5034054;28;20214;-70
2022/07/28 07:25:31;;;;;;;7.20;4.60;;;;;;;;;;5034670;28;20270;-70
2022/07/28 07:27:57;;;;;;;3.95;3.60;;;;;;;;;;5034274;28;20266;-69
2022/07/28 07:30:23;;;;;;;5.28;4.78;;;;;;;;;;5032917;28;20228;-69
2022/07/28 07:32:51;;;;;;;5.57;4.47;;;;;;;;;;5035636;27;20217;-69
2022/07/28 07:35:17;;;;;;;7.68;5.45;;;;;;;;;;5033620;28;20221;-69
2022/07/28 07:37:44;;;;;;;4.78;4.18;;;;;;;;;;5033856;28;20417;-69
2022/07/28 07:40:10;;;;;;;5.35;4.03;;;;;;;;;;5032898;28;20326;-70
2022/07/28 07:42:36;;;;;;;7.03;4.75;;;;;;;;;;5033210;28;20208;-69
2022/07/28 07:45:03;;;;;;;4.18;3.83;;;;;;;;;;5033895;28;20216;-69
2022/07/28 07:47:29;;;;;;;5.93;3.95;;;;;;;;;;5048080;27;20210;-70
2022/07/28 07:49:57;;;;;;;6.53;4.68;;;;;;;;;;5034237;28;20217;-69
2022/07/28 07:52:23;;;;;;;6.07;4.07;;;;;;;;;;5033258;28;20286;-69
2022/07/28 07:54:49;;;;;;;6.35;4.40;;;;;;;;;;5033518;28;20217;-70
2022/07/28 07:57:16;;;;;;;5.20;4.70;;;;;;;;;;5033318;28;20278;-69
2022/07/28 07:59:42;;;;;;;8.40;5.10;;;;;;;;;;5032844;28;20274;-70
2022/07/28 08:02:08;;;;;;;5.68;4.53;;;;;;;;;;5032626;28;20209;-69
2022/07/28 08:04:34;;;;;;;5.93;4.38;;;;;;;;;;5033173;28;20250;-70
2022/07/28 08:07:02;;;;;;;6.55;4.57;;;;;;;;;;5033036;28;20217;-71
2022/07/28 08:09:28;;;;;;;5.15;4.65;;;;;;;;;;5032040;28;20213;-70
2022/07/28 08:11:55;;;;;;;5.53;5.07;;;;;;;;;;5033255;28;20236;-70
2022/07/28 08:14:21;;;;;;;7.90;5.25;;;;;;;;;;5033160;28;20220;-70
2022/07/28 08:16:47;;;;;;;4.43;4.10;;;;;;;;;;5033033;28;20225;-70
2022/07/28 08:19:13;;;;;;;5.35;4.25;;;;;;;;;;5032789;28;20221;-70
2022/07/28 08:21:39;;;;;;;13.20;4.68;;;;;;;;;;5032505;28;20221;-63
2022/07/28 08:24:08;;;;;;;5.40;4.53;;;;;;;;;;5033290;28;20567;-63
2022/07/28 08:26:34;;;;;;;15.32;4.20;;;;;;;;;;5032708;28;20213;-64
2022/07/28 08:29:00;;;;;;;7.22;4.25;;;;;;;;;;5033186;28;20221;-64
2022/07/28 08:31:26;;;;;;;13.15;4.43;;;;;;;;;;5033405;28;20536;-64
2022/07/28 08:33:53;;;;;;;6.30;4.53;;;;;;;;;;5032769;28;20545;-62
2022/07/28 08:36:19;;;;;;;8.43;4.43;;;;;;;;;;5033292;28;20217;-61
2022/07/28 08:38:45;;;;;;;8.77;4.35;;;;;;;;;;5033190;28;20218;-61
2022/07/28 08:41:17;;;;;;;6.20;4.28;;;;;;;;;;5032820;28;20213;-62
2022/07/28 08:43:45;;;;;;;5.10;4.43;;;;;;;;;;5033183;28;20240;-62
2022/07/28 08:46:11;;;;;;;5.80;4.47;;;;;;;;;;5032626;28;20213;-62
2022/07/28 08:48:38;;;;;;;10.85;5.15;;;;;;;;;;5032343;28;20217;-62
2022/07/28 08:51:05;;;;;;;10.20;4.28;;;;;;;;;;5032629;28;20473;-61
2022/07/28 08:53:32;;;;;;;6.82;4.00;;;;;;;;;;5031886;28;20270;-61
2022/07/28 08:56:01;;;;;;;9.77;5.15;;;;;;;;;;5032562;28;20221;-62
2022/07/28 08:58:29;;;;;;;7.70;4.60;;;;;;;;;;5032151;28;20217;-61
2022/07/28 09:00:55;;;;;;;7.25;4.53;;;;;;;;;;5031278;28;20259;-62
2022/07/28 09:03:21;;;;;;;4.97;4.30;;;;;;;;;;5032233;28;20209;-62
2022/07/28 09:05:49;;;;;;;4.65;4.20;;;;;;;;;;5032093;28;20549;-62
2022/07/28 09:08:16;;;;;;;5.60;4.10;;;;;;;;;;5032082;28;20239;-62
2022/07/28 09:10:43;;;;;;;8.07;4.75;;;;;;;;;;5031836;28;20273;-62
2022/07/28 09:13:09;;;;;;;35.05;5.20;;;;;;;;;;5032170;28;20607;-62
2022/07/28 09:15:37;;;;;;;6.65;4.57;;;;;;;;;;5031941;28;20220;-62
2022/07/28 09:18:03;;;;;;;6.47;3.80;;;;;;;;;;5031804;28;20217;-62
2022/07/28 09:20:30;;;;;;;4.38;3.75;;;;;;;;;;5031438;28;20544;-62
2022/07/28 09:22:58;;;;;;;5.78;3.92;;;;;;;;;;5032235;28;20553;-62
2022/07/28 09:25:24;;;;;;;16.67;4.00;;;;;;;;;;5031401;28;20217;-62
2022/07/28 09:27:51;;;;;;;7.80;4.30;;;;;;;;;;5031349;28;20217;-62
2022/07/28 09:30:26;;;;;;;47.85;7.40;;;;;;;;;;5031167;28;20213;-63
2022/07/28 09:33:07;;;;;;;13.18;4.30;;;;;;;;;;5031684;28;20228;-62
2022/07/28 09:35:42;;;;;;;4.22;3.63;;;;;;;;;;5031498;28;20213;-62
2022/07/28 09:38:08;;;;;;;19.38;4.50;;;;;;;;;;5030891;28;20228;-61
2022/07/28 09:40:34;;;;;;;4.25;3.80;;;;;;;;;;5031689;28;20258;-62
2022/07/28 09:43:00;;;;;;;4.80;4.03;;;;;;;;;;5032079;28;20217;-63
2022/07/28 09:45:27;;;;;;;15.30;4.68;;;;;;;;;;5028576;28;20205;-62
2022/07/28 09:48:07;;;;;;;5.30;3.72;;;;;;;;;;5050169;27;20216;-62
2022/07/28 09:50:33;;;;;;;4.30;3.42;;;;;;;;;;5031279;28;20509;-62
2022/07/28 09:53:01;;;;;;;5.70;3.55;;;;;;;;;;5032390;28;20237;-62
2022/07/28 09:55:27;;;;;;;5.22;3.28;;;;;;;;;;5028701;28;20217;-62
2022/07/28 09:57:54;;;;;;;6.35;3.72;;;;;;;;;;5031493;28;20217;-62
2022/07/28 10:00:27;;;;;;;4.15;3.53;;;;;;;;;;5031330;28;20213;-63
2022/07/28 10:02:54;;;;;;;3.70;3.40;;;;;;;;;;5031578;28;20501;-62
2022/07/28 10:05:22;;;;;;;8.57;3.30;;;;;;;;;;5043198;27;20234;-62
2022/07/28 10:07:48;;;;;;;3.88;3.17;;;;;;;;;;5034532;28;20201;-61
2022/07/28 10:10:19;;;;;;;5.20;3.20;;;;;;;;;;5031135;28;20217;-61
2022/07/28 10:12:45;;;;;;;3.40;3.13;;;;;;;;;;5030952;28;20252;-61
2022/07/28 10:16:09;;;;;;;3.08;2.85;;;;;;;;;;5031505;28;20218;-61
2022/07/28 10:18:00;;;;;;;6.70;2.78;;;;;;;;;;5031630;28;20292;-61
2022/07/28 10:20:28;;;;;;;6.85;2.75;;;;;;;;;;5031568;28;20217;-60
2022/07/28 10:22:55;;;;;;;3.05;2.85;;;;;;;;;;5031569;28;20232;-61
2022/07/28 10:25:22;;;;;;;5.95;3.15;;;;;;;;;;5031159;28;20214;-62
2022/07/28 10:27:48;;;;;;;4.40;3.08;;;;;;;;;;5030668;28;20529;-61
2022/07/28 10:30:15;;;;;;;3.22;3.05;;;;;;;;;;5030560;28;20428;-61
2022/07/28 10:32:42;;;;;;;3.90;3.13;;;;;;;;;;5029594;28;20258;-61
2022/07/28 10:35:10;;;;;;;3.30;3.00;;;;;;;;;;5030749;28;20224;-62
2022/07/28 10:37:43;;;;;;;4.07;2.75;;;;;;;;;;5031086;28;20274;-61
2022/07/28 10:40:10;;;;;;;2.50;2.40;;;;;;;;;;5030497;28;20230;-61
2022/07/28 10:42:36;;;;;;;4.00;2.67;;;;;;;;;;5030528;28;20217;-61
2022/07/28 10:45:03;;;;;;;5.13;2.90;;;;;;;;;;5031241;28;20213;-61
2022/07/28 10:47:30;;;;;;;3.38;2.90;;;;;;;;;;5031275;28;20213;-60
2022/07/28 10:49:56;;;;;;;3.30;3.10;;;;;;;;;;5031244;28;20257;-61
2022/07/28 10:52:23;;;;;;;3.35;3.15;;;;;;;;;;5030827;28;20280;-61
2022/07/28 10:54:59;;;;;;;2.85;2.55;;;;;;;;;;5031340;28;20254;-62
2022/07/28 10:57:26;;;;;;;3.42;3.13;;;;;;;;;;5031349;28;20288;-62
2022/07/28 11:00:03;;;;;;;4.38;3.00;;;;;;;;;;5030143;28;20277;-63
2022/07/28 11:02:50;;;;;;;5.05;3.30;;;;;;;;;;5027667;28;20213;-63
2022/07/28 11:05:25;;;;;;;3.08;2.88;;;;;;;;;;5042721;28;20278;-62
2022/07/28 11:07:52;;;;;;;3.90;2.72;;;;;;;;;;5030694;28;20216;-63
2022/07/28 11:10:20;;;;;;;3.60;2.92;;;;;;;;;;5029981;28;20213;-63
2022/07/28 11:12:47;;;;;;;3.10;2.80;;;;;;;;;;5030588;28;20229;-62
2022/07/28 11:15:27;;;;;;;5.65;2.70;;;;;;;;;;5031307;28;20405;-62
2022/07/28 11:17:57;;;;;;;4.18;2.70;;;;;;;;;;5030429;28;20217;-61
2022/07/28 11:20:23;;;;;;;3.65;2.83;;;;;;;;;;5030137;28;20217;-62
2022/07/28 11:22:50;;;;;;;5.88;2.95;;;;;;;;;;5030783;28;20250;-63
2022/07/28 11:25:17;;;;;;;5.00;2.88;;;;;;;;;;5030435;28;20241;-61
2022/07/28 11:28:00;;;;;;;3.55;2.72;;;;;;;;;;5030030;28;20407;-62
2022/07/28 11:30:45;;;;;;;3.35;2.88;;;;;;;;;;5030424;28;20394;-62
2022/07/28 11:33:11;;;;;;;3.53;3.13;;;;;;;;;;5024003;28;20237;-61
2022/07/28 11:35:52;;;;;;;3.17;2.97;;;;;;;;;;5030924;28;20289;-61
2022/07/28 11:38:18;;;;;;;3.20;2.90;;;;;;;;;;5029532;28;20209;-64
2022/07/28 11:40:45;;;;;;;5.22;3.00;;;;;;;;;;5032854;28;20209;-61
2022/07/28 11:43:42;;;;;;;4.95;2.58;;;;;;;;;;5034132;28;20206;-61
2022/07/28 11:46:32;;;;;;;2.60;2.40;;;;;;;;;;5036267;28;20212;-61
2022/07/28 11:49:17;;;;;;;4.00;2.58;;;;;;;;;;5034295;28;20206;-61
2022/07/28 11:51:58;;;;;;;5.25;2.53;;;;;;;;;;5034941;28;20212;-61
2022/07/28 11:54:24;;;;;;;9.90;3.00;;;;;;;;;;5036333;28;20642;-61
2022/07/28 11:56:56;;;;;;;2.75;2.55;;;;;;;;;;5036045;28;20259;-61
2022/07/28 11:59:22;;;;;;;3.70;2.92;;;;;;;;;;5035789;28;20213;-61
2022/07/28 12:01:51;;;;;;;2.67;2.47;;;;;;;;;;5036358;28;20213;-62
2022/07/28 12:04:19;;;;;;;4.40;2.80;;;;;;;;;;5038996;27;20209;-61
2022/07/28 12:06:46;;;;;;;3.83;2.80;;;;;;;;;;5043693;27;20259;-61
2022/07/28 12:09:12;;;;;;;6.68;2.83;;;;;;;;;;5036350;28;20213;-61
2022/07/28 12:11:40;;;;;;;2.53;2.28;;;;;;;;;;5036815;28;20209;-61
2022/07/28 12:14:07;;;;;;;2.88;2.55;;;;;;;;;;5035428;28;20221;-61
2022/07/28 12:16:35;;;;;;;4.28;2.30;;;;;;;;;;5035740;28;20250;-61
2022/07/28 12:19:02;;;;;;;2.53;2.42;;;;;;;;;;5036303;28;20209;-61
2022/07/28 12:21:39;;;;;;;2.63;2.42;;;;;;;;;;5036387;28;20416;-61
2022/07/28 12:24:06;;;;;;;4.10;2.20;;;;;;;;;;5035238;28;20261;-61
2022/07/28 12:26:33;;;;;;;6.45;2.50;;;;;;;;;;5034254;28;20439;-61
2022/07/28 12:28:59;;;;;;;2.80;2.60;;;;;;;;;;5036162;28;20205;-61
2022/07/28 12:31:28;;;;;;;2.38;2.22;;;;;;;;;;5036054;28;20275;-61
2022/07/28 12:33:55;;;;;;;2.38;2.15;;;;;;;;;;5035418;28;20235;-61
2022/07/28 12:36:23;;;;;;;2.88;2.53;;;;;;;;;;5035643;28;20539;-61
2022/07/28 12:38:51;;;;;;;2.92;2.72;;;;;;;;;;5035565;28;20216;-61
2022/07/28 12:41:17;;;;;;;2.88;2.55;;;;;;;;;;5034979;28;20642;-61
2022/07/28 12:43:49;;;;;;;2.60;2.50;;;;;;;;;;5035367;28;20503;-61
2022/07/28 12:46:19;;;;;;;2.92;2.25;;;;;;;;;;5034851;28;20209;-61
2022/07/28 12:48:47;;;;;;;2.47;2.38;;;;;;;;;;5035532;28;20210;-61
2022/07/28 12:51:28;;;;;;;4.28;2.30;;;;;;;;;;5035071;28;20201;-61
2022/07/28 12:53:55;;;;;;;2.30;2.15;;;;;;;;;;5034953;28;20226;-61
2022/07/28 12:56:22;;;;;;;2.72;2.53;;;;;;;;;;5034506;28;20517;-61
2022/07/28 12:58:50;;;;;;;3.25;2.80;;;;;;;;;;5035192;28;20517;-61
2022/07/28 13:01:16;;;;;;;2.50;2.40;;;;;;;;;;5035236;28;20558;-61
2022/07/28 13:03:45;;;;;;;2.75;2.55;;;;;;;;;;5035241;28;20205;-61
2022/07/28 13:06:12;;;;;;;5.00;2.53;;;;;;;;;;5035422;28;20225;-61
2022/07/28 13:08:40;;;;;;;2.70;2.42;;;;;;;;;;5034915;28;20438;-61
2022/07/28 13:11:07;;;;;;;3.95;2.63;;;;;;;;;;5034773;28;20231;-61
2022/07/28 13:13:47;;;;;;;2.75;2.55;;;;;;;;;;5035100;28;20236;-61
2022/07/28 13:16:14;;;;;;;2.78;2.17;;;;;;;;;;5034561;28;20521;-60
2022/07/28 13:18:40;;;;;;;2.65;2.33;;;;;;;;;;5034689;28;20536;-61
2022/07/28 13:21:07;;;;;;;2.65;2.45;;;;;;;;;;5034744;28;20418;-61
2022/07/28 13:23:33;;;;;;;2.55;2.35;;;;;;;;;;5034745;28;20205;-61
2022/07/28 13:25:59;;;;;;;4.78;2.47;;;;;;;;;;5035001;28;20209;-61
2022/07/28 13:28:27;;;;;;;5.00;2.60;;;;;;;;;;5034912;28;20237;-61
2022/07/28 13:30:54;;;;;;;2.40;2.28;;;;;;;;;;5034465;28;20270;-61
2022/07/28 13:33:20;;;;;;;3.78;2.40;;;;;;;;;;5053859;27;20205;-61
2022/07/28 13:35:48;;;;;;;4.43;2.72;;;;;;;;;;5034794;28;20387;-62
2022/07/28 13:38:14;;;;;;;2.50;2.38;;;;;;;;;;5034397;28;20278;-62
2022/07/28 13:40:41;;;;;;;3.22;2.30;;;;;;;;;;5034250;28;20228;-62
2022/07/28 13:43:07;;;;;;;6.15;2.60;;;;;;;;;;5034437;28;20254;-62
2022/07/28 13:45:35;;;;;;;5.07;2.20;;;;;;;;;;5034544;28;20246;-62
2022/07/28 13:48:01;;;;;;;3.95;2.55;;;;;;;;;;5034386;28;20258;-62
2022/07/28 13:50:27;;;;;;;6.32;2.58;;;;;;;;;;5034671;28;20536;-61
2022/07/28 13:52:54;;;;;;;3.83;2.50;;;;;;;;;;5034324;28;20220;-61
2022/07/28 13:55:20;;;;;;;3.63;2.50;;;;;;;;;;5034336;28;20564;-62
2022/07/28 13:57:46;;;;;;;3.17;2.25;;;;;;;;;;5033905;28;20489;-62
2022/07/28 14:00:14;;;;;;;2.53;2.30;;;;;;;;;;5034238;28;20245;-62
2022/07/28 14:02:41;;;;;;;3.53;2.35;;;;;;;;;;5034067;28;20201;-61
2022/07/28 14:05:08;;;;;;;5.15;2.45;;;;;;;;;;5034194;28;20222;-63
2022/07/28 14:07:34;;;;;;;2.45;2.25;;;;;;;;;;5034709;28;20718;-61
2022/07/28 14:10:01;;;;;;;4.78;2.58;;;;;;;;;;5034375;28;20499;-71
2022/07/28 14:12:27;;;;;;;2.78;2.38;;;;;;;;;;5034547;28;20254;-71
2022/07/28 14:14:53;;;;;;;2.40;2.25;;;;;;;;;;5033773;28;20233;-72
2022/07/28 14:17:21;;;;;;;3.00;2.50;;;;;;;;;;5033901;28;20443;-71
2022/07/28 14:19:49;;;;;;;2.33;2.22;;;;;;;;;;5034621;28;20216;-71
2022/07/28 14:22:15;;;;;;;3.40;2.50;;;;;;;;;;5034150;28;20216;-69
2022/07/28 14:24:41;;;;;;;3.30;2.10;;;;;;;;;;5033634;28;20205;-70
2022/07/28 14:27:08;;;;;;;5.13;2.30;;;;;;;;;;5033935;28;20258;-70
2022/07/28 14:29:34;;;;;;;2.47;2.33;;;;;;;;;;5033848;28;20231;-70
2022/07/28 14:32:00;;;;;;;3.85;2.22;;;;;;;;;;5034131;28;20254;-70
2022/07/28 14:34:26;;;;;;;2.70;2.50;;;;;;;;;;5034318;28;20290;-70
2022/07/28 14:36:55;;;;;;;2.30;2.20;;;;;;;;;;5033403;28;20221;-69
2022/07/28 14:39:21;;;;;;;2.45;2.22;;;;;;;;;;5033952;28;20209;-69
2022/07/28 14:41:47;;;;;;;3.92;2.47;;;;;;;;;;5033484;28;20213;-70
2022/07/28 14:44:14;;;;;;;2.60;2.40;;;;;;;;;;5033478;28;20205;-70
2022/07/28 14:46:40;;;;;;;2.00;2.00;;;;;;;;;;5033074;28;20217;-70